sensor_id;sensor_type;location;lat;lon;timestamp;pressure;altitude;pressure_sealevel;temperature;humidity
56689;BME280;42565;53.342;-1.534;2023-05-19T00:07:23;100131.83;;;16.68;45.88
56689;BME280;42565;53.342;-1.534;2023-05-19T00:09:53;100128.92;;;15.40;45.13
56689;BME280;42565;53.342;-1.534;2023-05-19T00:12:20;100132.11;;;16.03;44.11
56689;BME280;42565;53.342;-1.534;2023-05-19T00:14:46;100135.00;;;16.23;43.91
56689;BME280;42565;53.342;-1.534;2023-05-19T00:17:13;100134.01;;;16.24;44.57
56689;BME280;42565;53.342;-1.534;2023-05-19T00:19:39;100129.29;;;16.83;43.65
56689;BME280;42565;53.342;-1.534;2023-05-19T00:22:06;100128.20;;;17.77;42.98
56689;BME280;42565;53.342;-1.534;2023-05-19T00:44:48;100129.48;;;16.98;45.52
56689;BME280;42565;53.342;-1.534;2023-05-19T00:47:14;100126.65;;;16.23;45.01
56689;BME280;42565;53.342;-1.534;2023-05-19T00:49:41;100129.01;;;17.80;43.89
56689;BME280;42565;53.342;-1.534;2023-05-19T00:52:08;100128.49;;;17.43;44.12
56689;BME280;42565;53.342;-1.534;2023-05-19T00:54:36;100131.67;;;16.92;46.12
56689;BME280;42565;53.342;-1.534;2023-05-19T00:57:03;100136.13;;;16.48;47.31
56689;BME280;42565;53.342;-1.534;2023-05-19T00:59:30;100133.70;;;16.47;46.72
56689;BME280;42565;53.342;-1.534;2023-05-19T01:01:58;100134.59;;;16.04;46.31
56689;BME280;42565;53.342;-1.534;2023-05-19T01:04:25;100135.88;;;15.82;46.33
56689;BME280;42565;53.342;-1.534;2023-05-19T01:06:52;100132.94;;;16.72;45.64
56689;BME280;42565;53.342;-1.534;2023-05-19T01:09:20;100131.60;;;15.94;46.67
56689;BME280;42565;53.342;-1.534;2023-05-19T01:11:47;100129.12;;;16.46;46.38
56689;BME280;42565;53.342;-1.534;2023-05-19T01:14:15;100127.18;;;16.18;47.73
56689;BME280;42565;53.342;-1.534;2023-05-19T01:16:46;100126.78;;;16.23;47.44
56689;BME280;42565;53.342;-1.534;2023-05-19T01:19:34;100127.81;;;16.14;47.19
56689;BME280;42565;53.342;-1.534;2023-05-19T01:22:18;100128.11;;;15.64;47.62
56689;BME280;42565;53.342;-1.534;2023-05-19T01:25:06;100130.70;;;15.94;47.17
56689;BME280;42565;53.342;-1.534;2023-05-19T01:27:46;100135.14;;;15.93;46.44
56689;BME280;42565;53.342;-1.534;2023-05-19T01:30:26;100132.20;;;15.74;46.12
56689;BME280;42565;53.342;-1.534;2023-05-19T01:32:58;100133.14;;;16.57;45.79
56689;BME280;42565;53.342;-1.534;2023-05-19T01:35:26;100130.52;;;15.58;46.52
56689;BME280;42565;53.342;-1.534;2023-05-19T01:37:57;100126.22;;;16.03;46.36
56689;BME280;42565;53.342;-1.534;2023-05-19T01:40:25;100125.33;;;15.46;46.48
56689;BME280;42565;53.342;-1.534;2023-05-19T01:42:56;100129.74;;;16.42;45.25
56689;BME280;42565;53.342;-1.534;2023-05-19T01:45:25;100130.79;;;15.50;45.79
56689;BME280;42565;53.342;-1.534;2023-05-19T01:47:55;100134.26;;;16.32;45.31
56689;BME280;42565;53.342;-1.534;2023-05-19T01:50:23;100134.19;;;15.60;45.85
56689;BME280;42565;53.342;-1.534;2023-05-19T01:52:51;100131.82;;;15.49;46.71
56689;BME280;42565;53.342;-1.534;2023-05-19T01:55:19;100129.59;;;15.57;48.15
56689;BME280;42565;53.342;-1.534;2023-05-19T01:57:53;100132.07;;;16.02;47.07
56689;BME280;42565;53.342;-1.534;2023-05-19T02:00:29;100131.27;;;15.79;46.46
56689;BME280;42565;53.342;-1.534;2023-05-19T02:03:08;100127.50;;;15.60;46.89
56689;BME280;42565;53.342;-1.534;2023-05-19T02:05:47;100122.68;;;15.27;48.56
56689;BME280;42565;53.342;-1.534;2023-05-19T02:08:22;100122.61;;;15.01;49.26
56689;BME280;42565;53.342;-1.534;2023-05-19T02:10:56;100118.33;;;15.41;49.52
56689;BME280;42565;53.342;-1.534;2023-05-19T02:13:30;100115.90;;;15.56;48.24
56689;BME280;42565;53.342;-1.534;2023-05-19T02:16:02;100119.23;;;15.57;48.45
56689;BME280;42565;53.342;-1.534;2023-05-19T02:18:29;100123.56;;;15.81;47.24
56689;BME280;42565;53.342;-1.534;2023-05-19T02:20:57;100123.71;;;16.19;47.51
56689;BME280;42565;53.342;-1.534;2023-05-19T02:23:23;100121.91;;;15.62;47.35
56689;BME280;42565;53.342;-1.534;2023-05-19T02:25:51;100123.70;;;15.85;47.97
56689;BME280;42565;53.342;-1.534;2023-05-19T02:28:19;100122.33;;;15.64;47.77
56689;BME280;42565;53.342;-1.534;2023-05-19T02:30:46;100119.26;;;15.96;48.49
56689;BME280;42565;53.342;-1.534;2023-05-19T02:33:14;100121.06;;;16.07;48.31
56689;BME280;42565;53.342;-1.534;2023-05-19T02:35:40;100125.27;;;15.69;48.64
56689;BME280;42565;53.342;-1.534;2023-05-19T02:38:07;100124.58;;;15.63;48.75
56689;BME280;42565;53.342;-1.534;2023-05-19T02:40:34;100126.89;;;15.47;48.49
56689;BME280;42565;53.342;-1.534;2023-05-19T02:43:01;100124.99;;;15.56;47.69
56689;BME280;42565;53.342;-1.534;2023-05-19T02:45:29;100128.11;;;15.47;47.55
56689;BME280;42565;53.342;-1.534;2023-05-19T02:47:56;100129.79;;;15.08;48.08
56689;BME280;42565;53.342;-1.534;2023-05-19T02:50:25;100127.25;;;14.85;49.13
56689;BME280;42565;53.342;-1.534;2023-05-19T02:52:52;100135.47;;;15.01;48.46
56689;BME280;42565;53.342;-1.534;2023-05-19T02:55:20;100131.20;;;14.91;48.57
56689;BME280;42565;53.342;-1.534;2023-05-19T02:57:47;100133.69;;;15.47;48.39
56689;BME280;42565;53.342;-1.534;2023-05-19T03:00:15;100138.58;;;16.12;46.40
56689;BME280;42565;53.342;-1.534;2023-05-19T03:02:42;100143.52;;;15.26;46.77
56689;BME280;42565;53.342;-1.534;2023-05-19T03:05:09;100143.20;;;15.69;46.83
56689;BME280;42565;53.342;-1.534;2023-05-19T03:07:36;100139.46;;;15.84;46.78
56689;BME280;42565;53.342;-1.534;2023-05-19T03:10:03;100137.71;;;16.07;45.82
56689;BME280;42565;53.342;-1.534;2023-05-19T03:12:30;100140.13;;;15.71;46.96
56689;BME280;42565;53.342;-1.534;2023-05-19T03:14:58;100139.85;;;16.05;46.78
56689;BME280;42565;53.342;-1.534;2023-05-19T03:17:25;100137.70;;;15.42;46.37
56689;BME280;42565;53.342;-1.534;2023-05-19T03:19:52;100134.83;;;15.45;46.38
56689;BME280;42565;53.342;-1.534;2023-05-19T03:22:19;100130.85;;;15.88;45.58
56689;BME280;42565;53.342;-1.534;2023-05-19T03:24:46;100130.95;;;15.69;46.10
56689;BME280;42565;53.342;-1.534;2023-05-19T03:27:13;100128.60;;;15.56;46.88
56689;BME280;42565;53.342;-1.534;2023-05-19T03:29:40;100131.69;;;15.62;46.99
56689;BME280;42565;53.342;-1.534;2023-05-19T03:32:06;100131.31;;;15.40;47.66
56689;BME280;42565;53.342;-1.534;2023-05-19T03:34:34;100129.41;;;15.22;47.50
56689;BME280;42565;53.342;-1.534;2023-05-19T03:37:01;100124.10;;;15.17;48.04
56689;BME280;42565;53.342;-1.534;2023-05-19T03:39:28;100119.98;;;14.74;48.21
56689;BME280;42565;53.342;-1.534;2023-05-19T03:41:55;100117.08;;;15.16;48.48
56689;BME280;42565;53.342;-1.534;2023-05-19T03:44:22;100112.23;;;14.31;49.21
56689;BME280;42565;53.342;-1.534;2023-05-19T03:46:49;100107.73;;;14.71;49.83
56689;BME280;42565;53.342;-1.534;2023-05-19T03:49:16;100105.70;;;14.77;49.63
56689;BME280;42565;53.342;-1.534;2023-05-19T03:51:43;100101.76;;;14.58;49.34
56689;BME280;42565;53.342;-1.534;2023-05-19T03:54:10;100098.43;;;14.55;50.15
56689;BME280;42565;53.342;-1.534;2023-05-19T03:56:38;100097.90;;;14.32;49.88
56689;BME280;42565;53.342;-1.534;2023-05-19T03:59:05;100094.70;;;14.73;49.49
56689;BME280;42565;53.342;-1.534;2023-05-19T04:01:32;100085.19;;;14.47;49.10
56689;BME280;42565;53.342;-1.534;2023-05-19T04:03:59;100083.14;;;14.64;49.71
56689;BME280;42565;53.342;-1.534;2023-05-19T04:06:25;100079.15;;;14.39;49.32
56689;BME280;42565;53.342;-1.534;2023-05-19T04:08:53;100077.68;;;14.70;49.73
56689;BME280;42565;53.342;-1.534;2023-05-19T04:11:20;100076.65;;;14.68;49.93
56689;BME280;42565;53.342;-1.534;2023-05-19T04:13:47;100077.41;;;14.36;50.31
56689;BME280;42565;53.342;-1.534;2023-05-19T04:16:14;100083.64;;;13.98;50.53
56689;BME280;42565;53.342;-1.534;2023-05-19T04:18:41;100091.32;;;14.29;51.57
56689;BME280;42565;53.342;-1.534;2023-05-19T04:21:09;100094.88;;;14.13;51.36
56689;BME280;42565;53.342;-1.534;2023-05-19T04:23:35;100088.54;;;14.13;49.97
56689;BME280;42565;53.342;-1.534;2023-05-19T04:26:03;100089.69;;;14.40;50.24
56689;BME280;42565;53.342;-1.534;2023-05-19T04:28:30;100091.82;;;14.66;49.97
56689;BME280;42565;53.342;-1.534;2023-05-19T04:30:56;100097.91;;;14.56;50.39
56689;BME280;42565;53.342;-1.534;2023-05-19T04:33:23;100095.39;;;14.87;48.54
56689;BME280;42565;53.342;-1.534;2023-05-19T04:35:50;100098.64;;;14.69;49.58
56689;BME280;42565;53.342;-1.534;2023-05-19T04:38:17;100102.77;;;14.68;49.78
56689;BME280;42565;53.342;-1.534;2023-05-19T04:40:44;100099.54;;;14.65;50.45
56689;BME280;42565;53.342;-1.534;2023-05-19T04:43:11;100099.50;;;14.76;49.27
56689;BME280;42565;53.342;-1.534;2023-05-19T04:45:37;100100.40;;;14.71;49.22
56689;BME280;42565;53.342;-1.534;2023-05-19T04:48:05;100104.79;;;14.77;50.06
56689;BME280;42565;53.342;-1.534;2023-05-19T04:50:32;100104.49;;;14.46;49.97
56689;BME280;42565;53.342;-1.534;2023-05-19T04:52:58;100102.61;;;14.83;50.48
56689;BME280;42565;53.342;-1.534;2023-05-19T04:55:25;100099.74;;;14.18;52.11
56689;BME280;42565;53.342;-1.534;2023-05-19T04:57:53;100099.45;;;14.21;51.06
56689;BME280;42565;53.342;-1.534;2023-05-19T05:00:21;100105.13;;;13.84;50.87
56689;BME280;42565;53.342;-1.534;2023-05-19T05:02:48;100110.91;;;14.35;50.37
56689;BME280;42565;53.342;-1.534;2023-05-19T05:05:15;100112.40;;;13.92;51.26
56689;BME280;42565;53.342;-1.534;2023-05-19T05:07:42;100114.20;;;14.47;51.19
56689;BME280;42565;53.342;-1.534;2023-05-19T05:10:09;100115.97;;;14.08;51.54
56689;BME280;42565;53.342;-1.534;2023-05-19T05:12:37;100119.75;;;14.40;52.14
56689;BME280;42565;53.342;-1.534;2023-05-19T05:15:05;100119.75;;;15.08;50.99
56689;BME280;42565;53.342;-1.534;2023-05-19T05:17:33;100122.23;;;14.96;50.74
56689;BME280;42565;53.342;-1.534;2023-05-19T05:20:01;100120.48;;;15.02;50.22
56689;BME280;42565;53.342;-1.534;2023-05-19T05:22:28;100121.51;;;14.70;50.08
56689;BME280;42565;53.342;-1.534;2023-05-19T05:24:56;100123.00;;;14.64;51.49
56689;BME280;42565;53.342;-1.534;2023-05-19T05:27:23;100126.37;;;14.39;51.02
56689;BME280;42565;53.342;-1.534;2023-05-19T05:29:51;100122.01;;;14.47;50.73
56689;BME280;42565;53.342;-1.534;2023-05-19T05:32:18;100121.02;;;14.85;50.04
56689;BME280;42565;53.342;-1.534;2023-05-19T05:34:46;100120.76;;;14.44;50.57
56689;BME280;42565;53.342;-1.534;2023-05-19T05:37:13;100121.06;;;14.70;50.23
56689;BME280;42565;53.342;-1.534;2023-05-19T05:39:41;100121.37;;;14.93;50.40
56689;BME280;42565;53.342;-1.534;2023-05-19T05:42:07;100123.18;;;14.76;50.45
56689;BME280;42565;53.342;-1.534;2023-05-19T05:44:34;100119.49;;;15.29;49.79
56689;BME280;42565;53.342;-1.534;2023-05-19T05:47:01;100121.49;;;14.84;51.49
56689;BME280;42565;53.342;-1.534;2023-05-19T05:49:29;100119.26;;;15.12;50.30
56689;BME280;42565;53.342;-1.534;2023-05-19T05:51:56;100121.62;;;15.25;50.43
56689;BME280;42565;53.342;-1.534;2023-05-19T05:54:23;100126.53;;;14.39;50.80
56689;BME280;42565;53.342;-1.534;2023-05-19T05:56:51;100126.92;;;15.16;50.41
56689;BME280;42565;53.342;-1.534;2023-05-19T05:59:19;100127.35;;;15.43;50.39
56689;BME280;42565;53.342;-1.534;2023-05-19T06:01:46;100130.71;;;14.80;51.07
56689;BME280;42565;53.342;-1.534;2023-05-19T06:04:13;100130.97;;;15.61;50.30
56689;BME280;42565;53.342;-1.534;2023-05-19T06:06:40;100126.77;;;15.79;50.20
56689;BME280;42565;53.342;-1.534;2023-05-19T06:09:07;100127.75;;;15.87;50.19
56689;BME280;42565;53.342;-1.534;2023-05-19T06:11:34;100131.81;;;15.13;50.76
56689;BME280;42565;53.342;-1.534;2023-05-19T06:14:01;100129.92;;;16.10;50.21
56689;BME280;42565;53.342;-1.534;2023-05-19T06:16:28;100127.93;;;15.76;50.18
56689;BME280;42565;53.342;-1.534;2023-05-19T06:18:55;100134.39;;;16.36;50.41
56689;BME280;42565;53.342;-1.534;2023-05-19T06:21:22;100131.97;;;16.17;49.65
56689;BME280;42565;53.342;-1.534;2023-05-19T06:23:49;100128.56;;;17.06;48.89
56689;BME280;42565;53.342;-1.534;2023-05-19T06:26:16;100130.58;;;16.15;50.08
56689;BME280;42565;53.342;-1.534;2023-05-19T06:28:44;100130.47;;;15.77;50.68
56689;BME280;42565;53.342;-1.534;2023-05-19T06:31:10;100137.31;;;15.57;51.49
56689;BME280;42565;53.342;-1.534;2023-05-19T06:33:37;100137.59;;;15.16;52.39
56689;BME280;42565;53.342;-1.534;2023-05-19T06:36:04;100135.03;;;15.47;52.41
56689;BME280;42565;53.342;-1.534;2023-05-19T06:38:31;100134.14;;;15.23;52.65
56689;BME280;42565;53.342;-1.534;2023-05-19T06:40:58;100135.02;;;15.27;52.13
56689;BME280;42565;53.342;-1.534;2023-05-19T06:43:25;100133.27;;;15.18;51.95
56689;BME280;42565;53.342;-1.534;2023-05-19T06:45:51;100131.54;;;15.05;52.73
56689;BME280;42565;53.342;-1.534;2023-05-19T06:48:19;100136.12;;;15.40;52.38
56689;BME280;42565;53.342;-1.534;2023-05-19T06:50:46;100135.06;;;15.95;52.14
56689;BME280;42565;53.342;-1.534;2023-05-19T06:53:16;100130.70;;;16.34;52.66
56689;BME280;42565;53.342;-1.534;2023-05-19T06:55:43;100127.14;;;16.56;51.35
56689;BME280;42565;53.342;-1.534;2023-05-19T06:58:10;100126.48;;;16.83;50.91
56689;BME280;42565;53.342;-1.534;2023-05-19T07:00:38;100124.69;;;16.33;50.73
56689;BME280;42565;53.342;-1.534;2023-05-19T07:03:05;100124.16;;;16.49;49.95
56689;BME280;42565;53.342;-1.534;2023-05-19T07:05:32;100123.84;;;16.19;50.33
56689;BME280;42565;53.342;-1.534;2023-05-19T07:07:59;100124.87;;;16.72;49.85
56689;BME280;42565;53.342;-1.534;2023-05-19T07:10:25;100120.32;;;16.78;49.90
56689;BME280;42565;53.342;-1.534;2023-05-19T07:12:53;100120.90;;;16.97;49.54
56689;BME280;42565;53.342;-1.534;2023-05-19T07:15:20;100120.22;;;16.76;49.03
56689;BME280;42565;53.342;-1.534;2023-05-19T07:17:47;100123.75;;;16.39;49.66
56689;BME280;42565;53.342;-1.534;2023-05-19T07:20:14;100122.34;;;16.27;49.42
56689;BME280;42565;53.342;-1.534;2023-05-19T07:22:41;100123.47;;;17.03;50.06
56689;BME280;42565;53.342;-1.534;2023-05-19T07:25:09;100128.79;;;17.26;49.53
56689;BME280;42565;53.342;-1.534;2023-05-19T07:27:36;100137.01;;;16.99;48.92
56689;BME280;42565;53.342;-1.534;2023-05-19T07:30:03;100141.20;;;17.12;49.41
56689;BME280;42565;53.342;-1.534;2023-05-19T07:32:30;100142.02;;;17.13;49.76
56689;BME280;42565;53.342;-1.534;2023-05-19T07:34:56;100143.48;;;16.89;49.34
56689;BME280;42565;53.342;-1.534;2023-05-19T07:37:23;100144.85;;;16.70;50.07
56689;BME280;42565;53.342;-1.534;2023-05-19T07:39:51;100148.16;;;16.86;50.17
56689;BME280;42565;53.342;-1.534;2023-05-19T07:42:18;100151.64;;;16.75;49.91
56689;BME280;42565;53.342;-1.534;2023-05-19T07:44:45;100151.04;;;17.19;50.27
56689;BME280;42565;53.342;-1.534;2023-05-19T07:47:12;100150.42;;;17.03;50.64
56689;BME280;42565;53.342;-1.534;2023-05-19T07:49:39;100153.51;;;17.13;50.84
56689;BME280;42565;53.342;-1.534;2023-05-19T07:52:07;100155.59;;;16.88;51.93
56689;BME280;42565;53.342;-1.534;2023-05-19T07:54:34;100154.06;;;16.44;52.19
56689;BME280;42565;53.342;-1.534;2023-05-19T07:57:01;100154.25;;;17.09;51.92
56689;BME280;42565;53.342;-1.534;2023-05-19T07:59:29;100151.89;;;16.49;52.73
56689;BME280;42565;53.342;-1.534;2023-05-19T08:01:55;100153.11;;;17.13;53.45
56689;BME280;42565;53.342;-1.534;2023-05-19T08:04:22;100150.93;;;16.66;53.11
56689;BME280;42565;53.342;-1.534;2023-05-19T08:06:49;100156.02;;;17.28;53.20
56689;BME280;42565;53.342;-1.534;2023-05-19T08:09:17;100156.98;;;17.36;54.74
56689;BME280;42565;53.342;-1.534;2023-05-19T08:11:44;100161.26;;;17.26;55.00
56689;BME280;42565;53.342;-1.534;2023-05-19T08:14:11;100160.10;;;17.07;55.34
56689;BME280;42565;53.342;-1.534;2023-05-19T08:16:39;100164.46;;;16.99;56.42
56689;BME280;42565;53.342;-1.534;2023-05-19T08:19:06;100161.50;;;17.33;54.89
56689;BME280;42565;53.342;-1.534;2023-05-19T08:21:34;100161.30;;;17.38;54.82
56689;BME280;42565;53.342;-1.534;2023-05-19T08:24:01;100162.98;;;17.44;55.50
56689;BME280;42565;53.342;-1.534;2023-05-19T08:26:28;100161.47;;;17.32;54.77
56689;BME280;42565;53.342;-1.534;2023-05-19T08:28:56;100163.51;;;16.72;55.41
56689;BME280;42565;53.342;-1.534;2023-05-19T08:31:22;100163.97;;;16.24;55.56
56689;BME280;42565;53.342;-1.534;2023-05-19T08:33:49;100164.62;;;16.28;56.10
56689;BME280;42565;53.342;-1.534;2023-05-19T08:36:17;100165.50;;;16.71;55.68
56689;BME280;42565;53.342;-1.534;2023-05-19T08:38:44;100165.09;;;16.35;55.53
56689;BME280;42565;53.342;-1.534;2023-05-19T08:41:12;100164.70;;;15.89;57.03
56689;BME280;42565;53.342;-1.534;2023-05-19T08:43:39;100168.66;;;16.13;57.71
56689;BME280;42565;53.342;-1.534;2023-05-19T08:46:07;100170.06;;;16.90;57.86
56689;BME280;42565;53.342;-1.534;2023-05-19T08:48:39;100174.30;;;16.62;57.11
56689;BME280;42565;53.342;-1.534;2023-05-19T08:51:13;100171.84;;;16.71;57.28
56689;BME280;42565;53.342;-1.534;2023-05-19T08:53:49;100172.85;;;16.45;57.07
56689;BME280;42565;53.342;-1.534;2023-05-19T08:56:21;100172.62;;;16.08;59.02
56689;BME280;42565;53.342;-1.534;2023-05-19T08:58:49;100173.06;;;16.09;59.37
56689;BME280;42565;53.342;-1.534;2023-05-19T09:01:18;100173.97;;;16.25;59.49
56689;BME280;42565;53.342;-1.534;2023-05-19T09:03:46;100173.98;;;16.05;60.96
56689;BME280;42565;53.342;-1.534;2023-05-19T09:06:13;100170.77;;;16.30;61.25
56689;BME280;42565;53.342;-1.534;2023-05-19T09:08:42;100171.60;;;16.35;61.04
56689;BME280;42565;53.342;-1.534;2023-05-19T09:11:10;100170.18;;;16.45;61.32
56689;BME280;42565;53.342;-1.534;2023-05-19T09:13:37;100174.96;;;16.53;62.03
56689;BME280;42565;53.342;-1.534;2023-05-19T09:16:05;100174.13;;;16.62;60.11
56689;BME280;42565;53.342;-1.534;2023-05-19T09:18:32;100171.61;;;16.58;59.22
56689;BME280;42565;53.342;-1.534;2023-05-19T09:21:00;100173.68;;;16.28;60.89
56689;BME280;42565;53.342;-1.534;2023-05-19T09:23:28;100177.33;;;16.36;60.19
56689;BME280;42565;53.342;-1.534;2023-05-19T09:25:56;100179.46;;;16.24;61.05
56689;BME280;42565;53.342;-1.534;2023-05-19T09:28:24;100181.15;;;16.55;61.65
56689;BME280;42565;53.342;-1.534;2023-05-19T09:31:00;100184.19;;;16.07;61.58
56689;BME280;42565;53.342;-1.534;2023-05-19T09:33:27;100184.17;;;16.23;61.19
56689;BME280;42565;53.342;-1.534;2023-05-19T09:35:55;100183.65;;;16.73;60.60
56689;BME280;42565;53.342;-1.534;2023-05-19T09:38:23;100183.31;;;16.63;60.54
56689;BME280;42565;53.342;-1.534;2023-05-19T09:40:51;100184.88;;;16.42;61.42
56689;BME280;42565;53.342;-1.534;2023-05-19T09:43:19;100185.25;;;16.27;61.73
56689;BME280;42565;53.342;-1.534;2023-05-19T09:45:46;100188.25;;;16.42;62.81
56689;BME280;42565;53.342;-1.534;2023-05-19T09:48:14;100189.38;;;16.62;62.02
56689;BME280;42565;53.342;-1.534;2023-05-19T09:50:42;100191.80;;;16.73;62.63
56689;BME280;42565;53.342;-1.534;2023-05-19T09:53:11;100191.62;;;16.60;64.28
56689;BME280;42565;53.342;-1.534;2023-05-19T09:55:39;100192.57;;;16.61;62.67
56689;BME280;42565;53.342;-1.534;2023-05-19T09:58:07;100193.74;;;17.03;62.70
56689;BME280;42565;53.342;-1.534;2023-05-19T10:00:33;100193.24;;;16.63;62.10
56689;BME280;42565;53.342;-1.534;2023-05-19T10:03:03;100192.57;;;16.90;62.63
56689;BME280;42565;53.342;-1.534;2023-05-19T10:05:31;100193.96;;;16.70;60.91
56689;BME280;42565;53.342;-1.534;2023-05-19T10:07:58;100193.21;;;16.50;61.99
56689;BME280;42565;53.342;-1.534;2023-05-19T10:10:26;100193.16;;;16.26;61.11
56689;BME280;42565;53.342;-1.534;2023-05-19T10:12:54;100191.38;;;16.33;60.48
56689;BME280;42565;53.342;-1.534;2023-05-19T10:15:22;100189.44;;;16.73;60.73
56689;BME280;42565;53.342;-1.534;2023-05-19T10:17:49;100187.46;;;16.93;59.74
56689;BME280;42565;53.342;-1.534;2023-05-19T10:20:18;100186.86;;;16.84;59.49
56689;BME280;42565;53.342;-1.534;2023-05-19T10:22:45;100186.76;;;16.65;57.89
56689;BME280;42565;53.342;-1.534;2023-05-19T10:25:13;100183.62;;;17.35;59.57
56689;BME280;42565;53.342;-1.534;2023-05-19T10:27:42;100181.90;;;17.62;57.68
56689;BME280;42565;53.342;-1.534;2023-05-19T10:30:13;100177.07;;;17.45;57.03
56689;BME280;42565;53.342;-1.534;2023-05-19T10:32:43;100175.31;;;17.56;58.42
56689;BME280;42565;53.342;-1.534;2023-05-19T10:35:32;100172.63;;;17.46;57.05
56689;BME280;42565;53.342;-1.534;2023-05-19T10:38:11;100174.11;;;17.90;56.66
56689;BME280;42565;53.342;-1.534;2023-05-19T10:40:52;100175.29;;;18.19;56.78
56689;BME280;42565;53.342;-1.534;2023-05-19T10:43:32;100171.89;;;18.72;56.59
56689;BME280;42565;53.342;-1.534;2023-05-19T10:46:03;100172.89;;;18.21;56.25
56689;BME280;42565;53.342;-1.534;2023-05-19T10:48:32;100171.70;;;17.90;55.37
56689;BME280;42565;53.342;-1.534;2023-05-19T10:51:00;100171.73;;;17.93;55.69
56689;BME280;42565;53.342;-1.534;2023-05-19T10:53:30;100173.00;;;17.89;55.14
56689;BME280;42565;53.342;-1.534;2023-05-19T10:56:00;100168.59;;;18.35;56.94
56689;BME280;42565;53.342;-1.534;2023-05-19T10:59:00;100174.94;;;18.79;56.26
56689;BME280;42565;53.342;-1.534;2023-05-19T11:01:30;100170.34;;;17.98;55.67
56689;BME280;42565;53.342;-1.534;2023-05-19T11:04:04;100169.19;;;18.59;55.35
56689;BME280;42565;53.342;-1.534;2023-05-19T11:06:32;100171.40;;;18.59;55.81
56689;BME280;42565;53.342;-1.534;2023-05-19T11:09:10;100168.59;;;18.07;55.34
56689;BME280;42565;53.342;-1.534;2023-05-19T11:11:46;100172.18;;;18.79;53.82
56689;BME280;42565;53.342;-1.534;2023-05-19T11:14:16;100167.46;;;18.81;52.24
56689;BME280;42565;53.342;-1.534;2023-05-19T11:16:46;100171.56;;;19.34;52.78
56689;BME280;42565;53.342;-1.534;2023-05-19T11:19:18;100173.53;;;19.80;53.86
56689;BME280;42565;53.342;-1.534;2023-05-19T11:21:47;100170.27;;;19.64;53.84
56689;BME280;42565;53.342;-1.534;2023-05-19T11:24:33;100172.31;;;20.45;52.19
56689;BME280;42565;53.342;-1.534;2023-05-19T11:27:17;100169.40;;;20.59;48.51
56689;BME280;42565;53.342;-1.534;2023-05-19T11:29:45;100171.53;;;20.32;49.35
56689;BME280;42565;53.342;-1.534;2023-05-19T11:32:13;100170.65;;;20.83;48.01
56689;BME280;42565;53.342;-1.534;2023-05-19T11:34:40;100166.66;;;20.78;46.13
56689;BME280;42565;53.342;-1.534;2023-05-19T11:37:07;100167.66;;;21.09;44.48
56689;BME280;42565;53.342;-1.534;2023-05-19T11:39:34;100167.96;;;21.08;45.18
56689;BME280;42565;53.342;-1.534;2023-05-19T11:42:02;100169.30;;;21.27;46.26
56689;BME280;42565;53.342;-1.534;2023-05-19T11:44:30;100172.13;;;20.81;45.54
56689;BME280;42565;53.342;-1.534;2023-05-19T11:46:58;100168.94;;;20.94;45.83
56689;BME280;42565;53.342;-1.534;2023-05-19T11:49:26;100166.09;;;20.95;44.98
56689;BME280;42565;53.342;-1.534;2023-05-19T11:51:54;100165.22;;;21.09;45.45
56689;BME280;42565;53.342;-1.534;2023-05-19T11:54:28;100166.88;;;20.63;45.81
56689;BME280;42565;53.342;-1.534;2023-05-19T11:56:56;100163.08;;;20.02;45.96
56689;BME280;42565;53.342;-1.534;2023-05-19T11:59:29;100167.20;;;19.60;45.20
56689;BME280;42565;53.342;-1.534;2023-05-19T12:02:16;100164.61;;;19.38;45.25
56689;BME280;42565;53.342;-1.534;2023-05-19T12:04:58;100162.06;;;18.73;45.90
56689;BME280;42565;53.342;-1.534;2023-05-19T12:07:25;100163.28;;;20.01;43.22
56689;BME280;42565;53.342;-1.534;2023-05-19T12:09:59;100163.92;;;19.24;43.98
56689;BME280;42565;53.342;-1.534;2023-05-19T12:12:28;100164.38;;;20.78;43.05
56689;BME280;42565;53.342;-1.534;2023-05-19T12:15:18;100166.06;;;19.69;44.40
56689;BME280;42565;53.342;-1.534;2023-05-19T12:17:49;100168.10;;;19.92;43.99
56689;BME280;42565;53.342;-1.534;2023-05-19T12:20:17;100174.71;;;20.91;42.16
56689;BME280;42565;53.342;-1.534;2023-05-19T12:22:45;100174.98;;;20.72;42.30
56689;BME280;42565;53.342;-1.534;2023-05-19T12:25:14;100170.55;;;20.59;41.81
56689;BME280;42565;53.342;-1.534;2023-05-19T12:27:42;100166.05;;;20.43;42.96
56689;BME280;42565;53.342;-1.534;2023-05-19T12:30:10;100165.28;;;20.36;42.98
56689;BME280;42565;53.342;-1.534;2023-05-19T12:32:37;100163.95;;;20.39;44.37
56689;BME280;42565;53.342;-1.534;2023-05-19T12:35:06;100161.81;;;19.58;44.44
56689;BME280;42565;53.342;-1.534;2023-05-19T12:37:33;100164.75;;;20.09;45.48
56689;BME280;42565;53.342;-1.534;2023-05-19T12:40:01;100163.33;;;19.96;46.54
56689;BME280;42565;53.342;-1.534;2023-05-19T12:42:29;100165.17;;;19.25;46.93
56689;BME280;42565;53.342;-1.534;2023-05-19T12:44:58;100168.67;;;19.41;46.99
56689;BME280;42565;53.342;-1.534;2023-05-19T12:47:30;100164.19;;;19.53;47.28
56689;BME280;42565;53.342;-1.534;2023-05-19T12:50:01;100167.07;;;19.70;46.35
56689;BME280;42565;53.342;-1.534;2023-05-19T12:52:29;100169.23;;;19.57;47.09
56689;BME280;42565;53.342;-1.534;2023-05-19T12:54:58;100166.58;;;19.03;48.13
56689;BME280;42565;53.342;-1.534;2023-05-19T12:57:26;100163.02;;;19.06;48.97
56689;BME280;42565;53.342;-1.534;2023-05-19T12:59:59;100160.91;;;18.60;47.37
56689;BME280;42565;53.342;-1.534;2023-05-19T13:02:26;100160.01;;;19.11;48.42
56689;BME280;42565;53.342;-1.534;2023-05-19T13:04:54;100157.32;;;19.03;46.46
56689;BME280;42565;53.342;-1.534;2023-05-19T13:07:21;100153.76;;;19.62;46.50
56689;BME280;42565;53.342;-1.534;2023-05-19T13:09:48;100147.75;;;18.14;47.72
56689;BME280;42565;53.342;-1.534;2023-05-19T13:12:15;100148.11;;;18.31;49.21
56689;BME280;42565;53.342;-1.534;2023-05-19T13:14:43;100152.65;;;19.35;49.86